createdAt,value
2022-12-31T06:28:17.788Z,15.30
2022-12-31T06:30:25.179Z,16.88
2022-12-31T06:32:29.187Z,15.77
2022-12-31T06:34:33.435Z,15.57
2022-12-31T06:36:37.100Z,14.63
2022-12-31T06:38:42.618Z,13.50
2022-12-31T06:40:46.409Z,16.13
2022-12-31T06:42:54.622Z,16.70
2022-12-31T06:45:02.401Z,15.23
2022-12-31T06:47:06.175Z,18.58
2022-12-31T06:49:10.488Z,17.27
2022-12-31T06:51:19.470Z,18.67
2022-12-31T06:53:23.446Z,19.85
2022-12-31T06:55:27.499Z,19.00
2022-12-31T06:57:31.708Z,18.45
2022-12-31T06:59:35.778Z,19.63
2022-12-31T07:01:58.819Z,16.95
2022-12-31T07:04:11.887Z,16.02
2022-12-31T07:06:33.416Z,16.00
2022-12-31T07:09:18.127Z,16.30
2022-12-31T07:11:30.098Z,14.38
2022-12-31T07:13:49.386Z,12.93
2022-12-31T07:16:20.439Z,12.02
2022-12-31T07:18:40.624Z,12.25
2022-12-31T07:20:45.488Z,12.13
2022-12-31T07:22:50.986Z,12.05
2022-12-31T07:24:56.239Z,11.35
2022-12-31T07:27:42.876Z,11.63
2022-12-31T07:30:19.575Z,12.35
2022-12-31T07:33:02.260Z,11.88
2022-12-31T07:35:21.610Z,14.57
2022-12-31T07:37:54.096Z,11.57
2022-12-31T07:40:16.885Z,11.65
2022-12-31T07:42:21.879Z,10.38
2022-12-31T07:44:43.486Z,10.75
2022-12-31T07:46:58.365Z,10.35
2022-12-31T07:49:02.513Z,11.27
2022-12-31T07:51:07.286Z,9.32
2022-12-31T07:53:12.248Z,9.10
2022-12-31T07:55:16.967Z,8.77
2022-12-31T07:57:27.496Z,9.27
2022-12-31T07:59:47.345Z,9.77
2022-12-31T08:01:54.757Z,8.85
2022-12-31T08:04:20.165Z,9.57
2022-12-31T08:06:58.647Z,9.07
2022-12-31T08:09:10.863Z,9.32
2022-12-31T08:11:43.404Z,9.35
2022-12-31T08:13:48.800Z,8.25
2022-12-31T08:15:54.065Z,9.20
2022-12-31T08:18:00.007Z,8.48
2022-12-31T08:20:12.997Z,8.13
2022-12-31T08:22:40.855Z,8.30
2022-12-31T08:25:04.645Z,8.85
2022-12-31T08:27:24.129Z,9.13
2022-12-31T08:29:42.116Z,8.68
2022-12-31T08:32:10.624Z,7.97
2022-12-31T08:34:46.824Z,8.05
2022-12-31T08:37:18.962Z,8.15
2022-12-31T09:44:43.257Z,11.95
2022-12-31T09:47:25.769Z,12.13
2022-12-31T09:49:50.197Z,12.25
2022-12-31T09:52:15.320Z,11.00
2022-12-31T09:54:56.937Z,10.80
2022-12-31T09:57:25.548Z,10.98
2022-12-31T09:59:42.128Z,10.95
2022-12-31T10:02:06.448Z,11.48
2022-12-31T10:04:45.101Z,11.32
2022-12-31T10:07:05.290Z,12.23
2022-12-31T10:09:46.722Z,13.93
2022-12-31T10:12:08.946Z,12.43
2022-12-31T10:14:41.002Z,11.82
2022-12-31T10:17:09.314Z,13.20
2022-12-31T10:22:26.308Z,11.88
2022-12-31T10:25:38.312Z,12.73
2022-12-31T10:28:01.960Z,12.27
2022-12-31T10:32:26.294Z,11.98
2022-12-31T10:34:48.655Z,12.10
2022-12-31T10:37:06.214Z,13.07
2022-12-31T10:39:27.366Z,12.57
2022-12-31T10:41:56.258Z,12.18
2022-12-31T10:44:25.557Z,12.73
2022-12-31T10:46:44.933Z,11.10
2022-12-31T10:49:32.412Z,11.95
2022-12-31T10:52:06.852Z,11.10
2022-12-31T10:54:38.532Z,12.77
2022-12-31T10:56:52.003Z,12.45
2022-12-31T10:59:22.661Z,11.88
2022-12-31T11:02:03.694Z,12.60
2022-12-31T11:04:37.073Z,12.32
2022-12-31T11:07:30.155Z,11.50
2022-12-31T11:10:01.288Z,13.05
2022-12-31T11:12:26.409Z,13.05
2022-12-31T11:15:05.378Z,13.60
2022-12-31T11:17:32.280Z,14.20
2022-12-31T11:20:03.792Z,16.92
2022-12-31T11:22:32.318Z,18.27
2022-12-31T11:24:35.899Z,17.75
2022-12-31T12:32:35.483Z,18.00
2022-12-31T12:34:49.125Z,20.08
2022-12-31T12:36:53.142Z,17.70
2022-12-31T12:39:08.551Z,18.30
2022-12-31T12:41:20.875Z,20.20
2022-12-31T12:43:28.807Z,17.83
2022-12-31T12:45:52.204Z,18.55
2022-12-31T12:48:18.245Z,17.17
2022-12-31T12:50:25.655Z,17.55
2022-12-31T12:52:47.831Z,16.77
2022-12-31T12:55:45.333Z,17.25
2022-12-31T12:58:00.936Z,17.15
2022-12-31T13:00:24.921Z,16.92
2022-12-31T13:02:53.156Z,19.58
2022-12-31T13:05:12.961Z,18.90
2022-12-31T13:07:25.643Z,18.60
2022-12-31T13:09:50.583Z,20.15
2022-12-31T13:12:24.618Z,19.65
2022-12-31T13:14:57.188Z,19.98
2022-12-31T13:17:19.952Z,19.45
2022-12-31T13:20:03.495Z,18.40
2022-12-31T13:22:32.652Z,20.35
2022-12-31T13:25:07.412Z,21.15
2022-12-31T13:27:15.421Z,21.60
2022-12-31T13:29:26.025Z,21.30
2022-12-31T13:31:42.832Z,22.23
2022-12-31T13:33:53.393Z,20.80
2022-12-31T13:36:22.582Z,21.42
2022-12-31T13:38:31.610Z,21.23
2022-12-31T13:40:59.478Z,20.08
2022-12-31T13:43:07.960Z,21.40
2022-12-31T13:45:18.489Z,20.92
2022-12-31T13:47:31.202Z,23.58
2022-12-31T13:49:50.401Z,21.83
2022-12-31T13:52:10.628Z,23.13
2022-12-31T13:54:36.746Z,22.95
2022-12-31T13:56:43.048Z,22.20
2022-12-31T13:59:09.227Z,21.75
2022-12-31T14:01:32.108Z,22.00
2022-12-31T14:03:47.935Z,22.05
2022-12-31T14:06:07.203Z,22.55
2022-12-31T14:08:11.442Z,22.42
2022-12-31T14:10:17.163Z,24.40
2022-12-31T14:12:36.347Z,21.45
2022-12-31T14:15:22.467Z,20.80
2022-12-31T14:17:45.998Z,23.08
2022-12-31T14:20:13.831Z,22.08
2022-12-31T14:22:40.560Z,22.45
2022-12-31T14:24:57.117Z,25.42
2022-12-31T14:27:05.931Z,25.05
2022-12-31T14:29:55.248Z,23.30
2022-12-31T14:32:37.795Z,20.65
2022-12-31T14:34:53.886Z,22.13
2022-12-31T14:37:27.769Z,20.58
2022-12-31T14:40:00.873Z,20.95
2022-12-31T14:42:16.960Z,19.38
2022-12-31T14:44:27.924Z,22.20
2022-12-31T14:46:53.809Z,21.33
2022-12-31T14:49:18.746Z,21.77
2022-12-31T14:51:23.439Z,22.75
2022-12-31T14:53:29.725Z,20.83
2022-12-31T14:55:42.783Z,22.58
2022-12-31T15:00:33.772Z,23.40
2022-12-31T15:02:38.031Z,22.42
2022-12-31T15:04:47.467Z,22.15
2022-12-31T15:07:33.695Z,21.90
2022-12-31T15:09:53.909Z,20.63
2022-12-31T15:12:24.296Z,21.50
2022-12-31T15:14:40.632Z,21.48
2022-12-31T15:17:09.208Z,20.88
2022-12-31T15:19:16.336Z,21.00
2022-12-31T15:22:00.532Z,20.80
2022-12-31T15:24:14.333Z,19.67
2022-12-31T15:26:33.513Z,19.48
2022-12-31T15:28:43.199Z,20.88
2022-12-31T15:30:51.076Z,18.90
2022-12-31T15:33:00.417Z,20.80
2022-12-31T15:35:25.264Z,20.73
2022-12-31T15:37:38.178Z,21.25
2022-12-31T15:39:45.221Z,20.70
2022-12-31T15:42:36.204Z,19.25
2022-12-31T15:44:44.290Z,18.38
2022-12-31T15:47:05.024Z,19.30
2022-12-31T15:49:18.395Z,18.92
2022-12-31T15:51:32.693Z,18.38
2022-12-31T15:53:51.195Z,17.80
2022-12-31T15:55:56.725Z,18.00
2022-12-31T15:58:21.833Z,17.73
2022-12-31T16:00:27.154Z,17.45
2022-12-31T16:02:33.933Z,18.77
2022-12-31T16:04:44.785Z,19.13
2022-12-31T16:06:51.241Z,19.13
2022-12-31T16:08:57.753Z,18.98
2022-12-31T16:11:04.295Z,19.15
2022-12-31T16:13:09.373Z,18.85
2022-12-31T16:15:24.496Z,17.67
2022-12-31T16:17:38.650Z,18.30
2022-12-31T16:19:48.336Z,17.33
2022-12-31T16:21:58.124Z,17.85
2022-12-31T16:24:05.795Z,17.48
2022-12-31T16:26:12.908Z,16.83
2022-12-31T17:24:09.393Z,6.50
2022-12-31T17:26:27.290Z,4.80
2022-12-31T17:28:40.056Z,4.38
2022-12-31T17:30:45.729Z,4.32
2022-12-31T17:32:53.611Z,3.15
2022-12-31T17:34:57.913Z,3.35
2022-12-31T17:37:02.988Z,3.22
2022-12-31T17:39:19.537Z,3.75
2022-12-31T17:41:28.585Z,3.03
2022-12-31T17:43:38.579Z,3.28
2022-12-31T17:45:46.242Z,2.78
2022-12-31T17:47:54.605Z,2.90
2022-12-31T17:49:58.337Z,2.92
2022-12-31T17:52:01.965Z,3.60
2022-12-31T17:54:16.518Z,3.28
2022-12-31T17:56:22.246Z,3.78
2022-12-31T17:58:58.232Z,3.40
2022-12-31T18:01:03.253Z,3.30
2022-12-31T18:03:07.550Z,2.55
2022-12-31T18:05:24.521Z,3.15
2022-12-31T18:07:28.783Z,2.50
2022-12-31T18:09:32.978Z,3.20
2022-12-31T18:11:39.734Z,2.75
2022-12-31T18:13:44.714Z,2.70
2022-12-31T18:15:49.101Z,2.70
2022-12-31T18:21:31.412Z,2.85
2022-12-31T18:23:42.722Z,2.63
2022-12-31T18:36:40.033Z,4.20
2022-12-31T18:38:49.371Z,2.83
2022-12-31T18:41:03.811Z,3.13
2022-12-31T18:43:11.721Z,2.47
2022-12-31T18:45:22.879Z,2.13
2022-12-31T18:47:39.952Z,2.53
2022-12-31T18:49:46.903Z,2.60
2022-12-31T18:51:59.031Z,2.50
2022-12-31T18:54:05.109Z,2.42
2022-12-31T18:56:16.834Z,2.20
2022-12-31T18:58:24.176Z,2.83
2022-12-31T19:00:29.024Z,2.65
2022-12-31T19:02:33.416Z,2.35
2022-12-31T19:04:37.652Z,2.28
2022-12-31T19:06:42.923Z,2.85
2022-12-31T19:08:49.699Z,2.45
2022-12-31T19:10:56.416Z,2.33
2022-12-31T19:13:01.316Z,2.55
2022-12-31T19:15:06.014Z,3.35
2022-12-31T19:19:12.153Z,2.45
2022-12-31T19:21:24.712Z,1.85
2022-12-31T19:23:29.719Z,1.95
2022-12-31T19:25:37.075Z,2.28
2022-12-31T19:27:41.418Z,2.25
2022-12-31T19:29:46.344Z,2.10
2022-12-31T19:52:44.283Z,2.70
2022-12-31T19:54:48.251Z,2.80
2022-12-31T19:56:52.519Z,2.70
2022-12-31T19:58:56.865Z,3.22
2022-12-31T20:01:03.437Z,3.42
2022-12-31T20:03:07.286Z,3.10
2022-12-31T20:05:13.424Z,3.60
2022-12-31T20:07:20.839Z,2.17
2022-12-31T20:09:27.325Z,2.65
2022-12-31T20:11:31.112Z,2.53
2022-12-31T20:13:37.287Z,2.88
2022-12-31T20:15:41.914Z,3.17
2022-12-31T20:17:46.203Z,3.25
2022-12-31T20:19:50.641Z,3.17
2022-12-31T20:21:54.861Z,2.60
2022-12-31T20:23:58.949Z,2.53
2022-12-31T20:26:03.790Z,2.42
2022-12-31T20:28:08.931Z,2.83
2022-12-31T20:30:15.064Z,4.50
2022-12-31T20:32:18.763Z,4.55
2022-12-31T20:34:22.971Z,4.72
2022-12-31T20:36:29.091Z,3.10
2022-12-31T20:50:11.157Z,4.82
2022-12-31T20:52:16.524Z,5.45
2022-12-31T20:54:20.197Z,9.65
2022-12-31T20:56:24.928Z,8.85
2022-12-31T20:58:28.564Z,9.57
2022-12-31T21:00:32.784Z,8.52
2022-12-31T21:02:42.074Z,7.75
2022-12-31T21:04:48.992Z,8.68
2022-12-31T21:06:53.892Z,9.95
2022-12-31T21:09:00.142Z,9.98
2022-12-31T21:11:04.311Z,10.82
2022-12-31T21:13:10.496Z,10.77
2022-12-31T21:15:16.667Z,11.48
2022-12-31T21:17:20.400Z,10.18
2022-12-31T21:19:24.671Z,11.60
2022-12-31T21:21:28.410Z,10.65
2022-12-31T21:23:34.471Z,12.15
2022-12-31T21:25:38.161Z,12.82
2022-12-31T21:27:42.564Z,14.48
2022-12-31T21:30:16.987Z,15.15
2022-12-31T21:32:10.781Z,14.43
2022-12-31T21:34:15.103Z,14.25
2022-12-31T21:36:19.781Z,14.85
2022-12-31T21:54:34.814Z,13.30
2022-12-31T21:56:39.051Z,12.18
2022-12-31T21:58:45.168Z,10.00
2022-12-31T22:01:09.433Z,8.73
2022-12-31T22:03:27.817Z,7.53
2022-12-31T22:05:32.458Z,8.57
2022-12-31T22:07:36.692Z,7.15
2022-12-31T22:09:40.330Z,7.38
2022-12-31T22:11:44.070Z,6.85
2022-12-31T22:13:48.890Z,6.93
2022-12-31T22:16:03.844Z,7.72
2022-12-31T22:18:08.915Z,6.70
2022-12-31T22:20:27.066Z,7.82
2022-12-31T22:22:32.085Z,7.13
2022-12-31T22:24:36.886Z,8.10
2022-12-31T22:26:46.433Z,7.78
2022-12-31T22:28:51.098Z,7.38
2022-12-31T22:30:55.528Z,6.72
2022-12-31T22:32:59.814Z,7.25
2022-12-31T22:35:04.740Z,6.85
2022-12-31T22:37:27.471Z,7.18
2022-12-31T22:39:43.563Z,6.80
2022-12-31T22:41:48.762Z,6.50
2022-12-31T22:44:02.633Z,6.20
2022-12-31T22:46:13.741Z,6.88
2022-12-31T22:48:18.134Z,5.63
2022-12-31T22:50:22.483Z,6.13
2022-12-31T22:52:26.493Z,6.10
2022-12-31T22:54:30.753Z,5.80
2022-12-31T22:56:34.493Z,6.30
2022-12-31T22:58:39.301Z,5.70
2022-12-31T23:00:44.092Z,5.60
2022-12-31T23:05:45.071Z,5.60
2022-12-31T23:08:22.283Z,5.47
2022-12-31T23:10:53.468Z,6.10
2022-12-31T23:13:01.418Z,5.32
2022-12-31T23:15:24.514Z,5.38
2022-12-31T23:17:47.793Z,5.10
2022-12-31T23:20:11.303Z,8.02
2022-12-31T23:22:33.267Z,13.10
2022-12-31T23:24:37.019Z,16.13
2022-12-31T23:26:41.314Z,15.93
2022-12-31T23:28:46.504Z,15.13
2022-12-31T23:30:51.104Z,14.10
2022-12-31T23:32:54.832Z,17.65
2022-12-31T23:35:03.245Z,21.73
2022-12-31T23:37:09.989Z,21.42
2022-12-31T23:39:16.192Z,16.77
2022-12-31T23:41:22.903Z,10.75
2022-12-31T23:43:26.721Z,13.23
2022-12-31T23:45:33.260Z,9.23
2022-12-31T23:47:42.175Z,8.45
2022-12-31T23:49:47.116Z,7.95
2022-12-31T23:51:51.396Z,7.00
2022-12-31T23:53:55.250Z,7.50
2022-12-31T23:56:15.019Z,7.57
2022-12-31T23:58:23.307Z,8.02
